aviador You're here:

KSAN Decoded Metar

SAN DIEGO in CA, USA
Report Time2018-05-25 19:51:00
UTC Time2018-05-25 20:40:21
Flight Rules vfr VFR
Wind300° at 10 kt
W.Decomp.*RWY 27: 9.6 kt HW 2.8 kt RCW
W.Rank300° ranks 1
Current wind is above 300° avg. (7.2)
Visibility9999 m
Phenomena:N/A
Clouds:Scattered 024 Hf
Scattered 040 Hf
Expected CloudBase > 2,800 ft AGL from Temp-Dew spread
CeilingNone
Temp19°C (ISA +4)
Dew Point12°C (64% RH)
AAT16.0°C
QNH1021 hPa
Density Alt436 ft
Elevation39 ft
Report Wrong Elevation
Raw Report
KSAN 251951Z 30010KT 10SM SCT024 SCT040 19/12 A3014 RMK AO2 SLP206
T01940117=

Extra information for KSAN:More info

Metar Taf Metar & Taf Last 4 Metars F.Rules Stats Wind Profile Meteogram Temp Stats Airport Information Weather charts Add Link Nearby VenuesMetar ALERT Operation Metar Decoded Social comments

AIRNAV info for KSAN